createdAt,value
2018-08-13T00:00:24.430Z,3.27
2018-08-13T00:00:57.398Z,3.37
2018-08-13T00:01:30.391Z,2.75
2018-08-13T00:02:03.374Z,2.92
2018-08-13T00:02:36.717Z,2.70
2018-08-13T00:03:09.870Z,3.35
2018-08-13T00:03:42.878Z,3.00
2018-08-13T00:04:15.798Z,3.27
2018-08-13T00:04:48.766Z,2.60
2018-08-13T00:05:21.806Z,3.02
2018-08-13T00:05:54.710Z,2.85
2018-08-13T00:06:27.855Z,3.20
2018-08-13T00:07:00.785Z,2.95
2018-08-13T00:07:33.897Z,3.50
2018-08-13T00:08:06.883Z,3.20
2018-08-13T00:08:39.863Z,3.25
2018-08-13T00:09:14.459Z,3.27
2018-08-13T00:09:47.396Z,2.87
2018-08-13T00:10:20.547Z,2.80
2018-08-13T00:10:53.451Z,3.10
2018-08-13T00:11:26.472Z,3.05
2018-08-13T00:11:59.363Z,2.98
2018-08-13T00:12:32.274Z,3.00
2018-08-13T00:13:05.283Z,3.00
2018-08-13T00:13:38.279Z,2.90
2018-08-13T00:14:11.223Z,3.10
2018-08-13T00:14:44.144Z,2.90
2018-08-13T00:15:17.112Z,2.60
2018-08-13T00:15:50.076Z,2.55
2018-08-13T00:16:22.993Z,2.52
2018-08-13T00:16:56.042Z,2.62
2018-08-13T00:17:28.993Z,2.50
2018-08-13T00:18:02.130Z,2.60
2018-08-13T00:18:35.105Z,3.40
2018-08-13T00:19:08.170Z,2.67
2018-08-13T00:19:41.114Z,3.30
2018-08-13T00:20:14.226Z,2.85
2018-08-13T00:20:47.201Z,3.00
2018-08-13T00:21:20.131Z,2.90
2018-08-13T00:21:53.180Z,2.55
2018-08-13T00:22:26.127Z,3.00
2018-08-13T00:22:59.070Z,3.27
2018-08-13T00:23:32.021Z,3.12
2018-08-13T00:24:04.941Z,2.80
2018-08-13T00:24:37.844Z,2.85
2018-08-13T00:25:10.849Z,2.50
2018-08-13T00:25:43.788Z,2.60
2018-08-13T00:26:16.740Z,2.85
2018-08-13T00:26:49.713Z,2.80
2018-08-13T00:27:22.651Z,3.12
2018-08-13T00:27:55.582Z,2.47
2018-08-13T00:28:28.499Z,2.80
2018-08-13T00:29:01.393Z,2.67
2018-08-13T00:29:34.348Z,2.80
2018-08-13T00:30:07.523Z,3.25
2018-08-13T00:30:40.552Z,3.02
2018-08-13T00:31:13.598Z,3.25
2018-08-13T00:31:46.577Z,2.80
2018-08-13T00:32:19.522Z,2.90
2018-08-13T00:32:52.488Z,3.10
2018-08-13T00:33:25.407Z,2.58
2018-08-13T00:33:58.360Z,3.00
2018-08-13T00:34:31.493Z,2.70
2018-08-13T00:35:04.538Z,3.12
2018-08-13T00:35:37.716Z,2.50
2018-08-13T00:36:11.028Z,3.42
2018-08-13T00:36:43.992Z,2.90
2018-08-13T00:37:16.970Z,3.22
2018-08-13T00:37:49.910Z,2.65
2018-08-13T00:38:23.001Z,2.90
2018-08-13T00:38:56.000Z,3.10
2018-08-13T00:39:29.023Z,3.12
2018-08-13T00:40:01.978Z,2.87
2018-08-13T00:40:34.903Z,3.02
2018-08-13T00:41:07.859Z,2.80
2018-08-13T00:41:40.834Z,3.02
2018-08-13T00:42:13.824Z,2.58
2018-08-13T00:42:46.742Z,3.40
2018-08-13T00:43:19.662Z,2.83
2018-08-13T00:43:52.577Z,2.83
2018-08-13T00:44:25.514Z,3.00
2018-08-13T00:44:58.471Z,3.00
2018-08-13T00:45:31.402Z,2.90
2018-08-13T00:46:04.331Z,2.95
2018-08-13T00:46:37.254Z,2.90
2018-08-13T00:47:10.228Z,3.20
2018-08-13T00:47:43.397Z,2.87
2018-08-13T00:48:16.501Z,2.75
2018-08-13T00:48:49.449Z,2.90
2018-08-13T00:49:22.369Z,2.37
2018-08-13T00:49:55.292Z,2.77
2018-08-13T00:50:28.240Z,3.10
2018-08-13T00:51:01.169Z,2.58
2018-08-13T00:51:35.051Z,3.20
2018-08-13T00:52:07.990Z,2.90
2018-08-13T00:52:41.721Z,2.80
2018-08-13T00:53:14.756Z,3.08
2018-08-13T00:53:47.720Z,2.60
2018-08-13T00:54:20.668Z,3.05
2018-08-13T00:54:53.740Z,2.95
2018-08-13T00:55:26.909Z,3.10
2018-08-13T00:56:00.089Z,2.87
2018-08-13T00:56:33.041Z,3.45
2018-08-13T00:57:06.125Z,3.10
2018-08-13T00:57:39.374Z,3.05
2018-08-13T00:58:12.341Z,2.80
2018-08-13T00:58:45.358Z,3.20
2018-08-13T00:59:18.315Z,3.12
2018-08-13T00:59:51.254Z,2.42
2018-08-13T01:00:24.438Z,3.10
2018-08-13T01:00:57.493Z,2.90
2018-08-13T01:01:30.430Z,3.25
2018-08-13T01:02:03.513Z,2.77
2018-08-13T01:02:36.430Z,2.80
2018-08-13T01:03:09.369Z,2.95
2018-08-13T01:03:42.451Z,3.33
2018-08-13T01:04:15.400Z,2.90
2018-08-13T01:04:48.491Z,3.50
2018-08-13T01:05:21.747Z,3.10
2018-08-13T01:05:54.689Z,3.17
2018-08-13T01:06:27.622Z,2.98
2018-08-13T01:07:00.572Z,3.05
2018-08-13T01:07:33.599Z,2.90
2018-08-13T01:08:06.546Z,3.12
2018-08-13T01:08:39.471Z,2.95
2018-08-13T01:09:12.421Z,2.80
2018-08-13T01:09:45.367Z,3.10
2018-08-13T01:10:19.040Z,2.80
2018-08-13T01:10:51.965Z,2.75
2018-08-13T01:11:24.969Z,2.70
2018-08-13T01:11:58.035Z,3.17
2018-08-13T01:12:30.969Z,3.45
2018-08-13T01:13:03.913Z,3.30
2018-08-13T01:13:36.930Z,3.20
2018-08-13T01:14:09.918Z,2.80
2018-08-13T01:14:42.978Z,3.37
2018-08-13T01:15:16.818Z,2.42
2018-08-13T01:15:49.907Z,2.67
2018-08-13T01:16:22.835Z,2.80
2018-08-13T01:16:55.848Z,2.87
2018-08-13T01:17:28.779Z,3.02
2018-08-13T01:18:01.724Z,3.60
2018-08-13T01:18:34.688Z,3.12
2018-08-13T01:19:07.620Z,3.00
2018-08-13T01:19:40.547Z,2.65
2018-08-13T01:20:15.000Z,2.83
2018-08-13T01:20:47.922Z,2.60
2018-08-13T01:21:20.847Z,3.10
2018-08-13T01:21:53.794Z,3.87
2018-08-13T01:22:26.820Z,3.52
2018-08-13T01:22:59.753Z,3.40
2018-08-13T01:23:32.885Z,3.60
2018-08-13T01:24:05.798Z,3.12
2018-08-13T01:24:38.760Z,3.27
2018-08-13T01:25:13.190Z,3.27
2018-08-13T01:25:46.233Z,3.22
2018-08-13T01:26:19.511Z,3.25
2018-08-13T01:26:58.995Z,3.05
2018-08-13T01:27:32.786Z,2.72
2018-08-13T01:28:05.741Z,2.60
2018-08-13T01:28:38.713Z,3.08
2018-08-13T01:29:11.682Z,3.08
2018-08-13T01:29:44.661Z,3.45
2018-08-13T01:30:18.704Z,3.52
2018-08-13T01:30:51.645Z,3.10
2018-08-13T01:31:24.729Z,3.50
2018-08-13T01:31:57.650Z,3.22
2018-08-13T01:32:31.158Z,3.65
2018-08-13T01:33:04.259Z,3.25
2018-08-13T01:33:37.188Z,3.55
2018-08-13T01:34:10.404Z,3.50
2018-08-13T01:34:43.503Z,3.37
2018-08-13T01:35:16.436Z,3.15
2018-08-13T01:35:49.384Z,3.35
2018-08-13T01:36:23.052Z,3.27
2018-08-13T01:36:55.972Z,2.90
2018-08-13T01:37:29.121Z,3.10
2018-08-13T01:38:02.074Z,2.80
2018-08-13T01:38:35.003Z,3.85
2018-08-13T01:39:08.893Z,3.40
2018-08-13T01:39:41.833Z,3.08
2018-08-13T01:40:14.833Z,3.40
2018-08-13T01:40:47.862Z,3.50
2018-08-13T01:41:20.797Z,3.42
2018-08-13T01:41:53.750Z,3.17
2018-08-13T01:42:26.674Z,3.05
2018-08-13T01:42:59.649Z,4.05
2018-08-13T01:43:32.582Z,3.30
2018-08-13T01:44:05.765Z,3.05
2018-08-13T01:44:38.694Z,2.90
2018-08-13T01:45:12.335Z,3.12
2018-08-13T01:45:45.254Z,3.12
2018-08-13T01:46:18.172Z,3.22
2018-08-13T01:46:51.286Z,3.58
2018-08-13T01:47:24.222Z,3.10
2018-08-13T01:47:57.134Z,3.25
2018-08-13T01:48:30.062Z,3.05
2018-08-13T01:49:03.246Z,3.10
2018-08-13T01:49:36.185Z,3.00
2018-08-13T01:50:09.698Z,3.27
2018-08-13T01:50:42.619Z,3.80
2018-08-13T01:51:15.562Z,3.40
2018-08-13T01:51:48.644Z,3.60
2018-08-13T01:52:21.539Z,3.35
2018-08-13T01:52:54.486Z,3.17
2018-08-13T01:53:27.469Z,3.40
2018-08-13T01:54:00.410Z,3.02
2018-08-13T01:54:33.333Z,3.67
2018-08-13T01:55:07.176Z,3.20
2018-08-13T01:55:40.289Z,3.52
2018-08-13T01:56:13.241Z,3.00
2018-08-13T01:56:46.218Z,3.40
2018-08-13T01:57:19.232Z,3.12
2018-08-13T01:57:52.166Z,3.60
2018-08-13T01:58:25.137Z,2.83
2018-08-13T01:58:58.150Z,3.20
2018-08-13T01:59:31.299Z,3.10
2018-08-13T02:00:05.593Z,3.47
2018-08-13T02:00:38.528Z,3.15
2018-08-13T02:01:11.526Z,3.47
2018-08-13T02:01:44.492Z,2.95
2018-08-13T02:02:17.489Z,3.20
2018-08-13T02:02:50.429Z,3.02
2018-08-13T02:03:23.331Z,3.67
2018-08-13T02:03:56.271Z,2.75
2018-08-13T02:04:29.300Z,3.45
2018-08-13T02:05:02.222Z,3.10
2018-08-13T02:05:35.144Z,3.30
2018-08-13T02:06:08.227Z,2.90
2018-08-13T02:06:41.169Z,3.30
2018-08-13T02:07:14.086Z,3.50
2018-08-13T02:07:47.017Z,3.27
2018-08-13T02:08:19.934Z,3.75
2018-08-13T02:08:52.884Z,3.27
2018-08-13T02:09:32.706Z,3.15
2018-08-13T02:10:06.089Z,3.12
2018-08-13T02:10:39.040Z,2.80
2018-08-13T02:11:12.197Z,3.22
2018-08-13T02:11:45.126Z,3.02
2018-08-13T02:12:18.066Z,3.77
2018-08-13T02:12:51.003Z,3.00
2018-08-13T02:13:23.918Z,3.00
2018-08-13T02:13:56.911Z,3.50
2018-08-13T02:14:30.094Z,3.10
2018-08-13T02:15:03.126Z,2.83
2018-08-13T02:15:36.133Z,3.22
2018-08-13T02:16:09.098Z,3.65
2018-08-13T02:16:42.057Z,3.02
2018-08-13T02:17:14.983Z,3.27
2018-08-13T02:17:47.922Z,3.40
2018-08-13T02:18:20.853Z,3.20
2018-08-13T02:18:53.874Z,3.22
2018-08-13T02:19:27.220Z,3.67
2018-08-13T02:20:00.190Z,3.00
2018-08-13T02:20:33.121Z,3.33
2018-08-13T02:21:06.060Z,3.08
2018-08-13T02:21:39.064Z,2.83
2018-08-13T02:22:12.069Z,2.95
2018-08-13T02:22:45.027Z,3.40
2018-08-13T02:23:18.132Z,3.12
2018-08-13T02:23:51.105Z,3.00
2018-08-13T02:24:24.193Z,3.90
2018-08-13T02:24:57.088Z,3.10
2018-08-13T02:25:31.013Z,3.20
2018-08-13T02:26:03.965Z,3.33
2018-08-13T02:26:37.040Z,3.30
2018-08-13T02:27:10.079Z,3.60
2018-08-13T02:27:43.024Z,3.37
2018-08-13T02:28:15.951Z,3.60
2018-08-13T02:28:48.904Z,2.80
2018-08-13T02:29:22.005Z,3.05
2018-08-13T02:29:54.941Z,3.12
2018-08-13T02:30:27.851Z,3.87
2018-08-13T02:31:00.949Z,3.30
2018-08-13T02:31:33.885Z,3.15
2018-08-13T02:32:06.990Z,3.27
2018-08-13T02:32:40.047Z,3.25
2018-08-13T02:33:12.992Z,3.02
2018-08-13T02:33:45.927Z,3.20
2018-08-13T02:34:19.238Z,3.30
2018-08-13T02:34:52.186Z,3.30
2018-08-13T02:35:25.128Z,3.40
2018-08-13T02:35:58.030Z,3.12
2018-08-13T02:36:30.996Z,3.10
2018-08-13T02:37:04.105Z,3.15
2018-08-13T02:37:37.621Z,3.00
2018-08-13T02:38:10.555Z,3.33
2018-08-13T02:38:43.463Z,2.95
2018-08-13T02:39:16.416Z,3.33
2018-08-13T02:39:49.339Z,3.55
2018-08-13T02:40:22.250Z,3.37
2018-08-13T02:40:55.152Z,3.40
2018-08-13T02:41:28.269Z,3.00
2018-08-13T02:42:01.205Z,3.95
2018-08-13T02:42:35.238Z,3.40
2018-08-13T02:43:08.143Z,4.20
2018-08-13T02:43:41.127Z,3.55
2018-08-13T02:44:14.123Z,2.85
2018-08-13T02:49:36.163Z,3.87
2018-08-13T02:50:10.303Z,3.47
2018-08-13T02:50:43.544Z,3.30
2018-08-13T02:51:16.485Z,3.33
2018-08-13T02:51:49.426Z,3.55
2018-08-13T02:52:22.337Z,3.80
2018-08-13T02:52:55.289Z,2.92
2018-08-13T02:53:28.279Z,3.30
2018-08-13T02:54:01.523Z,3.25
2018-08-13T02:54:34.460Z,3.70
2018-08-13T02:55:07.851Z,3.30
2018-08-13T02:55:40.882Z,3.47
2018-08-13T02:56:13.854Z,3.25
2018-08-13T02:56:46.786Z,3.05
2018-08-13T02:57:19.706Z,3.30
2018-08-13T02:57:52.686Z,3.50
2018-08-13T02:58:25.838Z,3.27
2018-08-13T02:58:59.205Z,3.33
2018-08-13T02:59:32.555Z,3.10
2018-08-13T03:00:07.197Z,3.77
2018-08-13T03:00:40.096Z,3.20
2018-08-13T03:01:13.148Z,2.90
2018-08-13T03:01:46.134Z,4.00
2018-08-13T03:02:19.066Z,3.62
2018-08-13T03:02:52.075Z,3.00
2018-08-13T03:03:25.002Z,3.75
2018-08-13T03:03:58.069Z,3.50
2018-08-13T03:04:31.034Z,3.22
2018-08-13T03:05:04.749Z,3.30
2018-08-13T03:05:37.650Z,3.27
2018-08-13T03:06:10.600Z,3.45
2018-08-13T03:06:43.829Z,3.05
2018-08-13T03:07:16.902Z,3.62
2018-08-13T03:07:49.817Z,3.70
2018-08-13T03:08:22.749Z,3.70
2018-08-13T03:08:55.716Z,3.20
2018-08-13T03:09:28.637Z,3.30
2018-08-13T03:10:01.628Z,3.45
2018-08-13T03:10:34.639Z,3.10
2018-08-13T03:11:07.578Z,3.90
2018-08-13T03:11:40.614Z,3.33
2018-08-13T03:12:13.547Z,3.37
2018-08-13T03:12:46.498Z,3.40
2018-08-13T03:13:19.429Z,3.30
2018-08-13T03:13:52.926Z,3.02
2018-08-13T03:14:26.154Z,3.87
2018-08-13T03:17:39.429Z,3.50
2018-08-13T03:18:12.368Z,3.50
2018-08-13T03:18:45.343Z,3.42
2018-08-13T03:19:18.383Z,4.00
2018-08-13T03:19:51.553Z,3.52
2018-08-13T03:20:24.489Z,3.10
2018-08-13T03:20:57.426Z,3.70
2018-08-13T03:21:30.404Z,4.00
2018-08-13T03:22:03.317Z,3.30
2018-08-13T03:22:36.255Z,3.50
2018-08-13T03:23:09.259Z,3.60
2018-08-13T03:23:42.302Z,3.65
2018-08-13T03:24:15.239Z,3.22
2018-08-13T03:24:48.174Z,3.85
2018-08-13T03:25:21.187Z,3.58
2018-08-13T03:25:54.128Z,3.70
2018-08-13T03:26:27.075Z,3.33
2018-08-13T03:27:00.011Z,3.98
2018-08-13T03:27:33.288Z,3.20
2018-08-13T03:28:06.219Z,4.12
2018-08-13T03:28:39.193Z,3.92
2018-08-13T03:29:12.113Z,3.50
2018-08-13T03:29:45.048Z,3.70
2018-08-13T03:30:17.972Z,3.50
2018-08-13T03:30:50.957Z,4.08
2018-08-13T03:31:23.925Z,3.80
2018-08-13T03:31:56.857Z,3.55
2018-08-13T03:32:29.825Z,3.45
2018-08-13T03:33:02.770Z,4.00
2018-08-13T03:33:35.812Z,3.87
2018-08-13T03:34:08.862Z,3.70
2018-08-13T03:34:42.059Z,3.40
2018-08-13T03:35:15.157Z,4.20
2018-08-13T03:35:48.140Z,3.75
2018-08-13T03:36:21.225Z,3.90
2018-08-13T03:36:54.150Z,3.60
2018-08-13T03:37:27.271Z,4.12
2018-08-13T03:38:00.469Z,3.55
2018-08-13T03:38:33.826Z,3.77
2018-08-13T03:39:08.084Z,3.40
2018-08-13T03:39:41.016Z,4.35
2018-08-13T03:40:14.160Z,3.80
2018-08-13T03:40:47.271Z,3.75
2018-08-13T03:41:20.267Z,3.90
2018-08-13T03:41:53.205Z,4.30
2018-08-13T03:42:26.230Z,3.80
2018-08-13T03:42:59.155Z,3.60
2018-08-13T03:43:32.126Z,3.95
2018-08-13T03:44:05.177Z,3.75
2018-08-13T03:44:38.326Z,3.60
2018-08-13T03:45:11.761Z,3.25
2018-08-13T03:45:44.797Z,4.08
2018-08-13T03:46:17.725Z,4.20
2018-08-13T03:46:50.721Z,3.42
2018-08-13T03:47:23.676Z,3.87
2018-08-13T03:47:56.757Z,3.90
2018-08-13T03:48:30.253Z,4.20
2018-08-13T03:49:03.215Z,4.00
2018-08-13T03:49:36.315Z,3.75
2018-08-13T03:50:10.689Z,4.00
2018-08-13T03:50:43.657Z,3.35
2018-08-13T03:51:16.654Z,3.95
2018-08-13T03:51:49.583Z,4.10
2018-08-13T03:52:22.640Z,3.75
2018-08-13T03:52:55.639Z,3.70
2018-08-13T03:53:28.640Z,3.75
2018-08-13T03:54:01.585Z,4.22
2018-08-13T03:54:34.561Z,4.12
2018-08-13T03:55:08.280Z,3.67
2018-08-13T03:55:41.273Z,3.65
2018-08-13T03:56:14.239Z,3.95
2018-08-13T03:56:47.235Z,3.60
2018-08-13T03:57:20.182Z,3.83
2018-08-13T03:57:53.118Z,3.62
2018-08-13T03:58:26.083Z,4.60
2018-08-13T03:58:59.109Z,3.55
2018-08-13T03:59:32.031Z,3.92
2018-08-13T04:00:11.012Z,3.60
2018-08-13T04:00:43.996Z,4.00
2018-08-13T04:01:16.934Z,3.30
2018-08-13T04:01:49.877Z,3.60
2018-08-13T04:02:22.820Z,3.92
2018-08-13T04:02:55.801Z,4.10
2018-08-13T04:03:28.746Z,4.00
2018-08-13T04:04:01.843Z,3.98
2018-08-13T04:04:34.869Z,4.00
2018-08-13T04:05:08.174Z,4.45
2018-08-13T04:05:41.272Z,3.65
2018-08-13T04:06:14.560Z,3.40
2018-08-13T04:06:47.556Z,3.70
2018-08-13T04:07:20.594Z,4.08
2018-08-13T04:07:53.787Z,3.65
2018-08-13T04:08:26.733Z,4.50
2018-08-13T04:08:59.869Z,3.90
2018-08-13T04:09:32.807Z,3.95
2018-08-13T04:10:07.030Z,3.70
2018-08-13T04:10:39.987Z,3.80
2018-08-13T04:11:13.019Z,3.87
2018-08-13T04:11:45.954Z,3.95
2018-08-13T04:12:18.940Z,4.10
2018-08-13T04:12:51.968Z,3.95
2018-08-13T04:13:24.873Z,4.10
2018-08-13T04:13:57.986Z,3.60
2018-08-13T04:14:30.897Z,4.67
2018-08-13T04:15:04.780Z,4.30
2018-08-13T04:15:37.750Z,4.00
2018-08-13T04:16:10.713Z,3.67
2018-08-13T04:16:48.137Z,3.65
2018-08-13T04:17:21.115Z,4.00
2018-08-13T04:17:54.225Z,3.72
2018-08-13T04:18:27.221Z,3.90
2018-08-13T04:19:00.144Z,3.67
2018-08-13T04:19:33.923Z,3.65
2018-08-13T04:20:08.625Z,3.72
2018-08-13T04:20:41.566Z,4.00
2018-08-13T04:21:14.566Z,4.33
2018-08-13T04:21:47.698Z,3.98
2018-08-13T04:22:20.720Z,4.08
2018-08-13T04:22:53.914Z,4.17
2018-08-13T04:23:26.879Z,3.95
2018-08-13T04:23:59.793Z,4.12
2018-08-13T04:24:32.725Z,4.17
2018-08-13T04:25:06.916Z,3.92
2018-08-13T04:25:39.856Z,4.00
2018-08-13T04:26:12.822Z,3.60
2018-08-13T04:26:45.760Z,3.87
2018-08-13T04:27:18.881Z,3.98
2018-08-13T04:27:51.878Z,3.87
2018-08-13T04:28:24.833Z,4.17
2018-08-13T04:28:57.921Z,3.42
2018-08-13T04:29:30.874Z,3.70
2018-08-13T04:30:05.152Z,3.67
2018-08-13T04:30:38.194Z,3.55
2018-08-13T04:31:11.269Z,3.60
2018-08-13T04:31:44.313Z,3.70
2018-08-13T04:32:17.250Z,3.80
2018-08-13T04:32:50.264Z,3.55
2018-08-13T04:33:23.200Z,3.60
2018-08-13T04:33:56.397Z,3.47
2018-08-13T04:34:29.312Z,3.92
2018-08-13T04:35:02.213Z,3.80
2018-08-13T04:35:35.446Z,3.47
2018-08-13T04:36:08.524Z,3.40
2018-08-13T04:36:41.712Z,4.05
2018-08-13T04:37:14.745Z,3.17
2018-08-13T04:37:48.034Z,3.72
2018-08-13T04:38:20.986Z,4.15
2018-08-13T04:38:54.232Z,3.58
2018-08-13T04:39:27.290Z,3.55
2018-08-13T04:40:00.437Z,3.62
2018-08-13T04:40:33.506Z,3.62
2018-08-13T04:41:06.509Z,3.98
2018-08-13T04:41:39.513Z,4.22
2018-08-13T04:42:12.506Z,4.22
2018-08-13T04:42:46.362Z,3.90
2018-08-13T04:43:19.308Z,4.28
2018-08-13T04:43:52.439Z,4.00
2018-08-13T04:44:25.477Z,3.40
2018-08-13T04:44:58.462Z,3.77
2018-08-13T04:45:31.499Z,4.58
2018-08-13T04:46:04.516Z,4.10
2018-08-13T04:46:37.572Z,4.55
2018-08-13T04:47:10.541Z,3.70
2018-08-13T04:47:48.196Z,4.58
2018-08-13T04:48:21.133Z,3.55
2018-08-13T04:48:54.072Z,3.67
2018-08-13T04:49:27.040Z,3.80
2018-08-13T04:50:00.137Z,3.50
2018-08-13T04:50:33.105Z,4.10
2018-08-13T04:51:06.116Z,3.75
2018-08-13T04:51:45.608Z,3.67
2018-08-13T04:52:18.604Z,3.55
2018-08-13T04:52:51.758Z,4.60
2018-08-13T04:53:24.734Z,4.50
2018-08-13T04:53:57.741Z,3.27
2018-08-13T04:54:30.763Z,3.85
2018-08-13T04:55:04.216Z,3.58
2018-08-13T04:55:37.142Z,3.98
2018-08-13T04:56:10.302Z,4.20
2018-08-13T04:56:43.280Z,4.03
2018-08-13T04:57:16.201Z,3.90
2018-08-13T04:57:49.311Z,4.05
2018-08-13T04:58:22.262Z,4.30
2018-08-13T04:58:55.197Z,4.25
2018-08-13T04:59:28.132Z,3.60
2018-08-13T05:00:01.269Z,4.15
2018-08-13T05:00:34.206Z,4.75
2018-08-13T05:01:07.229Z,4.20
2018-08-13T05:01:40.302Z,3.80
2018-08-13T05:02:13.366Z,3.80
2018-08-13T05:02:46.481Z,4.28
2018-08-13T05:03:19.633Z,4.12
2018-08-13T05:03:52.836Z,4.03
2018-08-13T05:04:25.765Z,4.05
2018-08-13T05:04:58.803Z,4.33
2018-08-13T05:05:31.897Z,3.90
2018-08-13T05:06:04.890Z,3.77
2018-08-13T05:06:37.857Z,4.05
2018-08-13T05:07:10.944Z,3.95
2018-08-13T05:07:44.432Z,3.58
2018-08-13T05:08:17.387Z,3.80
2018-08-13T05:08:50.331Z,3.92
2018-08-13T05:09:23.261Z,4.37
2018-08-13T05:09:56.421Z,3.62
2018-08-13T05:10:29.601Z,4.00
2018-08-13T05:11:02.557Z,3.60
2018-08-13T05:11:35.506Z,4.28
2018-08-13T05:12:08.598Z,4.28
2018-08-13T05:12:41.990Z,4.35
2018-08-13T05:13:14.917Z,3.70
2018-08-13T05:13:47.898Z,3.98
2018-08-13T05:14:20.880Z,3.95
2018-08-13T05:14:53.905Z,4.62
2018-08-13T05:15:26.946Z,4.25
2018-08-13T05:15:59.901Z,3.72
2018-08-13T05:16:32.826Z,4.03
2018-08-13T05:17:05.843Z,3.42
2018-08-13T05:17:39.082Z,4.05
2018-08-13T05:18:12.110Z,3.80
2018-08-13T05:18:45.052Z,4.05
2018-08-13T05:19:17.982Z,3.80
2018-08-13T05:19:51.025Z,3.50
2018-08-13T05:20:23.959Z,3.70
2018-08-13T05:20:56.861Z,3.75
2018-08-13T05:21:30.139Z,3.95
2018-08-13T05:22:03.175Z,3.65
2018-08-13T05:22:36.230Z,3.35
2018-08-13T05:23:09.228Z,4.00
2018-08-13T05:23:42.201Z,3.27
2018-08-13T05:24:15.174Z,3.92
2018-08-13T05:24:48.153Z,3.67
2018-08-13T05:25:21.117Z,3.75
2018-08-13T05:25:54.060Z,3.77
2018-08-13T05:26:27.141Z,3.35
2018-08-13T05:27:00.109Z,3.52
2018-08-13T05:27:33.053Z,3.25
2018-08-13T05:28:06.078Z,3.65
2018-08-13T05:28:39.085Z,3.98
2018-08-13T05:29:12.052Z,3.25
2018-08-13T05:29:44.998Z,4.37
2018-08-13T05:30:18.020Z,4.17
2018-08-13T05:30:51.056Z,4.22
2018-08-13T05:31:24.024Z,4.25
2018-08-13T05:31:56.998Z,4.55
2018-08-13T05:32:29.949Z,4.97
2018-08-13T05:33:03.275Z,5.10
2018-08-13T05:33:36.468Z,3.83
2018-08-13T05:34:09.399Z,4.50
2018-08-13T05:34:42.477Z,4.15
2018-08-13T05:35:15.987Z,4.05
2018-08-13T05:35:49.146Z,3.80
2018-08-13T05:36:22.160Z,4.42
2018-08-13T05:36:55.207Z,4.37
2018-08-13T05:37:28.240Z,3.85
2018-08-13T05:38:01.543Z,4.12
2018-08-13T05:38:34.494Z,3.70
2018-08-13T05:39:09.153Z,4.20
2018-08-13T05:39:42.100Z,3.90
2018-08-13T05:40:15.094Z,3.42
2018-08-13T05:40:48.071Z,4.20
2018-08-13T05:41:21.023Z,4.20
2018-08-13T05:41:54.145Z,3.30
2018-08-13T05:42:27.141Z,4.33
2018-08-13T05:43:00.254Z,4.22
2018-08-13T05:43:33.479Z,3.77
2018-08-13T05:44:06.686Z,3.83
2018-08-13T05:44:39.637Z,3.40
2018-08-13T05:45:12.731Z,3.80
2018-08-13T05:45:45.644Z,4.00
2018-08-13T05:46:18.737Z,3.70
2018-08-13T05:46:51.640Z,3.80
2018-08-13T05:47:24.683Z,3.75
2018-08-13T05:47:57.662Z,4.10
2018-08-13T05:48:30.637Z,4.25
2018-08-13T05:49:03.846Z,4.33
2018-08-13T05:49:36.766Z,4.30
2018-08-13T05:50:10.605Z,3.98
2018-08-13T05:50:43.534Z,4.35
2018-08-13T05:51:16.509Z,4.00
2018-08-13T05:51:50.414Z,3.60
2018-08-13T05:52:23.404Z,3.72
2018-08-13T05:52:56.352Z,3.90
2018-08-13T05:53:29.497Z,4.28
2018-08-13T05:54:02.695Z,3.60
2018-08-13T05:54:35.777Z,3.75
2018-08-13T05:55:09.645Z,3.95
2018-08-13T05:55:42.586Z,3.60
2018-08-13T05:56:15.693Z,3.60
2018-08-13T05:56:48.970Z,3.40
2018-08-13T05:57:22.053Z,4.08
2018-08-13T05:57:55.069Z,4.67
2018-08-13T05:58:27.993Z,3.50
2018-08-13T05:59:00.964Z,4.03
2018-08-13T05:59:33.860Z,4.03
2018-08-13T06:00:08.001Z,3.20
2018-08-13T06:00:40.958Z,3.62
2018-08-13T06:01:14.025Z,3.95
2018-08-13T06:01:47.042Z,3.90
2018-08-13T06:02:20.059Z,3.85
2018-08-13T06:02:53.131Z,3.60
2018-08-13T06:03:26.040Z,3.50
2018-08-13T06:03:58.999Z,3.40
2018-08-13T06:04:31.970Z,4.20
2018-08-13T06:05:04.977Z,3.80
2018-08-13T06:05:37.999Z,3.90
2018-08-13T06:06:11.209Z,3.42
2018-08-13T06:06:44.247Z,3.45
2018-08-13T06:07:17.206Z,3.77
2018-08-13T06:07:50.439Z,3.70
2018-08-13T06:08:23.385Z,3.80
2018-08-13T06:08:56.347Z,3.70
2018-08-13T06:09:29.301Z,4.00
2018-08-13T06:10:02.391Z,3.70
2018-08-13T06:10:35.410Z,3.40
2018-08-13T06:11:08.390Z,3.75
2018-08-13T06:11:41.603Z,3.20
2018-08-13T06:12:14.739Z,3.72
2018-08-13T06:12:47.799Z,4.00
2018-08-13T06:13:20.825Z,3.60
2018-08-13T06:13:53.900Z,3.52
2018-08-13T06:14:26.938Z,4.12
2018-08-13T06:14:59.934Z,4.00
2018-08-13T06:15:32.897Z,4.22
2018-08-13T06:16:05.859Z,3.50
2018-08-13T06:16:38.844Z,4.05
2018-08-13T06:17:11.795Z,4.35
2018-08-13T06:17:44.774Z,5.08
2018-08-13T06:18:17.963Z,4.30
2018-08-13T06:18:51.029Z,4.25
2018-08-13T06:19:23.981Z,4.35
2018-08-13T06:19:56.989Z,4.30
2018-08-13T06:20:30.008Z,3.55
2018-08-13T06:21:02.981Z,4.08
2018-08-13T06:21:35.932Z,3.85
2018-08-13T06:22:09.111Z,3.67
2018-08-13T06:22:42.737Z,4.03
2018-08-13T06:23:15.694Z,3.90
2018-08-13T06:23:48.931Z,4.00
2018-08-13T06:24:22.044Z,3.60
2018-08-13T06:24:54.983Z,4.45
2018-08-13T06:25:28.848Z,3.70
2018-08-13T06:26:02.574Z,3.90
2018-08-13T06:26:35.842Z,3.10
2018-08-13T06:27:08.857Z,3.45
2018-08-13T06:27:41.954Z,3.58
2018-08-13T06:28:14.984Z,3.02
2018-08-13T06:28:47.901Z,3.20
2018-08-13T06:29:20.958Z,3.72
2018-08-13T06:29:54.037Z,3.40
2018-08-13T06:30:27.000Z,4.08
2018-08-13T06:30:59.958Z,4.15
2018-08-13T06:31:33.011Z,3.80
2018-08-13T06:32:06.171Z,4.12
2018-08-13T06:32:39.779Z,3.75
2018-08-13T06:33:12.834Z,4.05
2018-08-13T06:33:45.871Z,3.67
2018-08-13T06:34:18.875Z,3.75
2018-08-13T06:34:51.993Z,3.87
2018-08-13T06:35:25.037Z,3.45
2018-08-13T06:35:58.022Z,3.67
2018-08-13T06:36:30.973Z,4.65
2018-08-13T06:37:04.250Z,4.17
2018-08-13T06:37:37.272Z,3.62
2018-08-13T06:38:10.345Z,4.05
2018-08-13T06:38:43.325Z,3.62
2018-08-13T06:39:16.764Z,3.67
2018-08-13T06:39:49.798Z,3.80
2018-08-13T06:40:23.059Z,4.00
2018-08-13T06:40:56.098Z,3.75
2018-08-13T06:41:29.307Z,3.58
2018-08-13T06:42:02.550Z,4.97
2018-08-13T06:42:35.802Z,3.45
2018-08-13T06:43:09.129Z,3.62
2018-08-13T06:43:42.082Z,3.58
2018-08-13T06:44:15.173Z,3.72
2018-08-13T06:44:48.114Z,3.70
2018-08-13T06:45:21.292Z,4.10
2018-08-13T06:45:55.951Z,3.65
2018-08-13T06:46:28.934Z,3.70
2018-08-13T06:47:02.022Z,3.27
2018-08-13T06:47:35.133Z,3.75
2018-08-13T06:48:08.061Z,4.03
2018-08-13T06:48:41.074Z,3.62
2018-08-13T06:49:14.029Z,3.40
2018-08-13T06:49:47.038Z,3.72
2018-08-13T06:50:19.986Z,3.20
2018-08-13T06:50:52.975Z,3.45
2018-08-13T06:51:25.957Z,3.20
2018-08-13T06:51:58.992Z,3.50
2018-08-13T06:52:32.059Z,4.20
2018-08-13T06:53:05.098Z,3.65
2018-08-13T06:53:39.281Z,3.90
2018-08-13T06:54:12.302Z,3.60
2018-08-13T06:54:45.245Z,3.85
2018-08-13T06:55:18.169Z,4.08
2018-08-13T06:55:51.278Z,3.42
2018-08-13T06:56:24.228Z,4.00
2018-08-13T06:56:57.188Z,4.00
2018-08-13T06:57:30.194Z,4.33
2018-08-13T06:58:03.196Z,3.77
2018-08-13T06:58:36.413Z,3.33
2018-08-13T06:59:09.450Z,3.45
2018-08-13T06:59:42.431Z,3.33
2018-08-13T07:00:15.394Z,3.40
2018-08-13T07:00:48.541Z,3.67
2018-08-13T07:01:21.551Z,3.50
2018-08-13T07:01:54.572Z,3.83
2018-08-13T07:02:27.737Z,4.20
2018-08-13T07:03:00.698Z,4.15
2018-08-13T07:03:33.820Z,4.55
2018-08-13T07:04:06.778Z,3.80
2018-08-13T07:04:39.836Z,3.15
2018-08-13T07:05:12.764Z,3.95
2018-08-13T07:05:46.564Z,4.08
2018-08-13T07:06:19.705Z,3.27
2018-08-13T07:06:52.861Z,3.47
2018-08-13T07:07:25.870Z,3.15
2018-08-13T07:07:59.093Z,4.60
2018-08-13T07:08:39.974Z,4.15
2018-08-13T07:09:13.056Z,3.95
2018-08-13T07:09:46.275Z,4.25
2018-08-13T07:10:19.238Z,3.98
2018-08-13T07:10:52.261Z,4.65
2018-08-13T07:11:25.227Z,3.67
2018-08-13T07:11:58.148Z,3.65
2018-08-13T07:12:31.283Z,3.80
2018-08-13T07:13:04.309Z,3.62
2018-08-13T07:13:37.325Z,3.35
2018-08-13T07:14:10.306Z,3.67
2018-08-13T07:14:43.292Z,3.60
2018-08-13T07:15:16.840Z,3.55
2018-08-13T07:15:49.889Z,3.65
2018-08-13T07:16:23.907Z,3.45
2018-08-13T07:16:57.557Z,3.58
2018-08-13T07:17:30.565Z,3.83
2018-08-13T07:18:03.710Z,3.35
2018-08-13T07:18:36.641Z,3.30
2018-08-13T07:19:09.714Z,3.60
2018-08-13T07:19:42.677Z,3.65
2018-08-13T07:20:16.248Z,3.02
2018-08-13T07:20:49.252Z,3.40
2018-08-13T07:21:22.353Z,2.98
2018-08-13T07:21:55.305Z,3.67
2018-08-13T07:22:28.361Z,3.27
2018-08-13T07:23:01.262Z,3.52
2018-08-13T07:23:34.221Z,3.45
2018-08-13T07:24:07.194Z,3.62
2018-08-13T07:24:40.379Z,3.90
2018-08-13T07:25:13.341Z,3.37
2018-08-13T07:25:46.286Z,3.20
2018-08-13T07:26:19.295Z,3.40
2018-08-13T07:26:52.259Z,3.47
2018-08-13T07:27:25.280Z,3.25
2018-08-13T07:27:58.343Z,3.60
2018-08-13T07:28:31.256Z,2.98